This is the latest recevied weather packets stored in our database for station/object IU1JVO-13. If no packets are shown the sender has not sent any weather packets the latest 10 day(s).
| Time | Temp. | Humidity | Pressure | Rain* | Wind** | Luminosity | Snow |
|---|---|---|---|---|---|---|---|
| 1788422762 | 24.44° C | 27% | 1023.9 hPa | 0 mm | - | - | - |
| 1788422162 | 23.89° C | 26% | 1023.7 hPa | 0 mm | - | - | - |
| 1788421562 | 23.89° C | 26% | 1023.7 hPa | 0 mm | - | - | - |
| 1788420962 | 23.33° C | 26% | 1023.5 hPa | 0 mm | - | - | - |
| 1788420361 | 23.33° C | 26% | 1023.4 hPa | 0 mm | - | - | - |
| 1788419760 | 22.78° C | 27% | 1023.6 hPa | 0 mm | - | - | - |
| 1788419161 | 22.22° C | 28% | 1023.5 hPa | 0 mm | - | - | - |
| 1788418561 | 21.67° C | 28% | 1023.5 hPa | 0 mm | - | - | - |
| 1788417361 | 20.56° C | 35% | 1023.3 hPa | 0 mm | - | - | - |
| 1788416761 | 20.56° C | 33% | 1023.3 hPa | 0 mm | - | - | - |
| 1788416161 | 20.56° C | 31% | 1023.1 hPa | 0 mm | - | - | - |
| 1788415561 | 20.56° C | 32% | 1023.2 hPa | 0 mm | - | - | - |
| 1788414960 | 20.56° C | 29% | 1023.3 hPa | 0 mm | - | - | - |
| 1788413758 | 20.56° C | 31% | 1023 hPa | 0 mm | - | - | - |
| 1788413158 | 20.56° C | 30% | 1023.1 hPa | 0 mm | - | - | - |
| 1788412558 | 20.56° C | 31% | 1023.1 hPa | 0 mm | - | - | - |
| 1788411958 | 20.56° C | 31% | 1022.9 hPa | 0 mm | - | - | - |
| 1788411355 | 20.56° C | 30% | 1022.9 hPa | 0 mm | - | - | - |
| 1788410755 | 20° C | 33% | 1022.7 hPa | 0 mm | - | - | - |
| 1788410155 | 20° C | 33% | 1022.6 hPa | 0 mm | - | - | - |
| 1788409553 | 20° C | 33% | 1022.5 hPa | 0 mm | - | - | - |
| 1788408952 | 20° C | 34% | 1022.6 hPa | 0 mm | - | - | - |
| 1788408353 | 20° C | 35% | 1022.6 hPa | 0 mm | - | - | - |
| 1788407751 | 20° C | 36% | 1022.7 hPa | 0 mm | - | - | - |
| 1788407152 | 19.44° C | 38% | 1022.6 hPa | 0 mm | - | - | - |
* Rain latest hour (hover to see other rain measurements)
** Current wind speed in m/s (hover to see current wind gust speed)